sensor_id;sensor_type;location;lat;lon;timestamp;temperature;humidity
6788;DHT22;3431;47.966;10.268;2023-07-29T00:00:19;16.50;99.90
6788;DHT22;3431;47.966;10.268;2023-07-29T00:00:41;16.50;99.90
6788;DHT22;3431;47.966;10.268;2023-07-29T00:01:03;16.50;99.90
6788;DHT22;3431;47.966;10.268;2023-07-29T00:01:26;16.50;99.90
6788;DHT22;3431;47.966;10.268;2023-07-29T00:01:47;16.50;99.90
6788;DHT22;3431;47.966;10.268;2023-07-29T00:02:10;16.50;99.90
6788;DHT22;3431;47.966;10.268;2023-07-29T00:02:32;16.50;99.90
6788;DHT22;3431;47.966;10.268;2023-07-29T00:02:53;16.50;99.90
6788;DHT22;3431;47.966;10.268;2023-07-29T00:03:16;16.50;99.90
6788;DHT22;3431;47.966;10.268;2023-07-29T00:03:37;16.50;99.90
6788;DHT22;3431;47.966;10.268;2023-07-29T00:03:59;16.50;99.90
6788;DHT22;3431;47.966;10.268;2023-07-29T00:04:20;16.50;99.90
6788;DHT22;3431;47.966;10.268;2023-07-29T00:04:42;16.50;99.90
6788;DHT22;3431;47.966;10.268;2023-07-29T00:05:04;16.50;99.90
6788;DHT22;3431;47.966;10.268;2023-07-29T00:05:27;16.50;99.90
6788;DHT22;3431;47.966;10.268;2023-07-29T00:05:48;16.50;99.90
6788;DHT22;3431;47.966;10.268;2023-07-29T00:06:10;16.50;99.90
6788;DHT22;3431;47.966;10.268;2023-07-29T00:06:32;16.50;99.90
6788;DHT22;3431;47.966;10.268;2023-07-29T00:06:53;16.50;99.90
6788;DHT22;3431;47.966;10.268;2023-07-29T00:07:16;16.50;99.90
6788;DHT22;3431;47.966;10.268;2023-07-29T00:07:37;16.50;99.90
6788;DHT22;3431;47.966;10.268;2023-07-29T00:07:59;16.40;99.90
6788;DHT22;3431;47.966;10.268;2023-07-29T00:08:20;16.40;99.90
6788;DHT22;3431;47.966;10.268;2023-07-29T00:08:42;16.50;99.90
6788;DHT22;3431;47.966;10.268;2023-07-29T00:09:04;16.40;99.90
6788;DHT22;3431;47.966;10.268;2023-07-29T00:09:26;16.40;99.90
6788;DHT22;3431;47.966;10.268;2023-07-29T00:09:47;16.40;99.90
6788;DHT22;3431;47.966;10.268;2023-07-29T00:10:09;16.40;99.90
6788;DHT22;3431;47.966;10.268;2023-07-29T00:10:34;16.40;99.90
6788;DHT22;3431;47.966;10.268;2023-07-29T00:10:58;16.40;99.90
6788;DHT22;3431;47.966;10.268;2023-07-29T00:11:19;16.40;99.90
6788;DHT22;3431;47.966;10.268;2023-07-29T00:11:41;16.40;99.90
6788;DHT22;3431;47.966;10.268;2023-07-29T00:12:03;16.40;99.90
6788;DHT22;3431;47.966;10.268;2023-07-29T00:12:24;16.40;99.90
6788;DHT22;3431;47.966;10.268;2023-07-29T00:12:47;16.40;99.90
6788;DHT22;3431;47.966;10.268;2023-07-29T00:13:09;16.40;99.90
6788;DHT22;3431;47.966;10.268;2023-07-29T00:13:30;16.40;99.90
6788;DHT22;3431;47.966;10.268;2023-07-29T00:13:52;16.40;99.90
6788;DHT22;3431;47.966;10.268;2023-07-29T00:14:14;16.40;99.90
6788;DHT22;3431;47.966;10.268;2023-07-29T00:14:36;16.40;99.90
6788;DHT22;3431;47.966;10.268;2023-07-29T00:14:58;16.40;99.90
6788;DHT22;3431;47.966;10.268;2023-07-29T00:15:19;16.40;99.90
6788;DHT22;3431;47.966;10.268;2023-07-29T00:15:41;16.40;99.90
6788;DHT22;3431;47.966;10.268;2023-07-29T00:16:02;16.40;99.90
6788;DHT22;3431;47.966;10.268;2023-07-29T00:16:25;16.40;99.90
6788;DHT22;3431;47.966;10.268;2023-07-29T00:16:46;16.50;99.90
6788;DHT22;3431;47.966;10.268;2023-07-29T00:17:08;16.40;99.90
6788;DHT22;3431;47.966;10.268;2023-07-29T00:17:30;16.40;99.90
6788;DHT22;3431;47.966;10.268;2023-07-29T00:17:52;16.40;99.90
6788;DHT22;3431;47.966;10.268;2023-07-29T00:18:14;16.50;99.90
6788;DHT22;3431;47.966;10.268;2023-07-29T00:18:35;16.50;99.90
6788;DHT22;3431;47.966;10.268;2023-07-29T00:18:57;16.40;99.90
6788;DHT22;3431;47.966;10.268;2023-07-29T00:19:18;16.40;99.90
6788;DHT22;3431;47.966;10.268;2023-07-29T00:19:41;16.40;99.90
6788;DHT22;3431;47.966;10.268;2023-07-29T00:20:04;16.50;99.90
6788;DHT22;3431;47.966;10.268;2023-07-29T00:20:26;16.40;99.90
6788;DHT22;3431;47.966;10.268;2023-07-29T00:20:48;16.50;99.90
6788;DHT22;3431;47.966;10.268;2023-07-29T00:21:09;16.50;99.90
6788;DHT22;3431;47.966;10.268;2023-07-29T00:21:31;16.50;99.90
6788;DHT22;3431;47.966;10.268;2023-07-29T00:21:55;16.50;99.90
6788;DHT22;3431;47.966;10.268;2023-07-29T00:22:18;16.50;99.90
6788;DHT22;3431;47.966;10.268;2023-07-29T00:22:42;16.50;99.90
6788;DHT22;3431;47.966;10.268;2023-07-29T00:23:05;16.50;99.90
6788;DHT22;3431;47.966;10.268;2023-07-29T00:23:26;16.50;99.90
6788;DHT22;3431;47.966;10.268;2023-07-29T00:23:48;16.50;99.90
6788;DHT22;3431;47.966;10.268;2023-07-29T00:24:10;16.50;99.90
6788;DHT22;3431;47.966;10.268;2023-07-29T00:24:32;16.50;99.90
6788;DHT22;3431;47.966;10.268;2023-07-29T00:24:54;16.50;99.90
6788;DHT22;3431;47.966;10.268;2023-07-29T00:25:16;16.50;99.90
6788;DHT22;3431;47.966;10.268;2023-07-29T00:25:39;16.50;99.90
6788;DHT22;3431;47.966;10.268;2023-07-29T00:26:00;16.50;99.90
6788;DHT22;3431;47.966;10.268;2023-07-29T00:26:24;16.50;99.90
6788;DHT22;3431;47.966;10.268;2023-07-29T00:26:47;16.50;99.90
6788;DHT22;3431;47.966;10.268;2023-07-29T00:27:08;16.50;99.90
6788;DHT22;3431;47.966;10.268;2023-07-29T00:27:30;16.50;99.90
6788;DHT22;3431;47.966;10.268;2023-07-29T00:27:51;16.50;99.90
6788;DHT22;3431;47.966;10.268;2023-07-29T00:28:13;16.50;99.90
6788;DHT22;3431;47.966;10.268;2023-07-29T00:28:35;16.50;99.90
6788;DHT22;3431;47.966;10.268;2023-07-29T00:28:57;16.50;99.90
6788;DHT22;3431;47.966;10.268;2023-07-29T00:29:19;16.50;99.90
6788;DHT22;3431;47.966;10.268;2023-07-29T00:29:40;16.50;99.90
6788;DHT22;3431;47.966;10.268;2023-07-29T00:30:02;16.50;99.90
6788;DHT22;3431;47.966;10.268;2023-07-29T00:30:25;16.50;99.90
6788;DHT22;3431;47.966;10.268;2023-07-29T00:30:46;16.50;99.90
6788;DHT22;3431;47.966;10.268;2023-07-29T00:31:08;16.50;99.90
6788;DHT22;3431;47.966;10.268;2023-07-29T00:31:29;16.50;99.90
6788;DHT22;3431;47.966;10.268;2023-07-29T00:31:52;16.50;99.90
6788;DHT22;3431;47.966;10.268;2023-07-29T00:32:15;16.50;99.90
6788;DHT22;3431;47.966;10.268;2023-07-29T00:32:40;16.50;99.90
6788;DHT22;3431;47.966;10.268;2023-07-29T00:33:01;16.50;99.90
6788;DHT22;3431;47.966;10.268;2023-07-29T00:33:23;16.50;99.90
6788;DHT22;3431;47.966;10.268;2023-07-29T00:33:44;16.50;99.90
6788;DHT22;3431;47.966;10.268;2023-07-29T00:34:06;16.50;99.90
6788;DHT22;3431;47.966;10.268;2023-07-29T00:34:28;16.50;99.90
6788;DHT22;3431;47.966;10.268;2023-07-29T00:34:50;16.50;99.90
6788;DHT22;3431;47.966;10.268;2023-07-29T00:35:12;16.50;99.90
6788;DHT22;3431;47.966;10.268;2023-07-29T00:35:34;16.50;99.90
6788;DHT22;3431;47.966;10.268;2023-07-29T00:35:56;16.50;99.90
6788;DHT22;3431;47.966;10.268;2023-07-29T00:36:17;16.50;99.90
6788;DHT22;3431;47.966;10.268;2023-07-29T00:36:40;16.50;99.90
6788;DHT22;3431;47.966;10.268;2023-07-29T00:37:02;16.40;99.90
6788;DHT22;3431;47.966;10.268;2023-07-29T00:37:24;16.40;99.90
6788;DHT22;3431;47.966;10.268;2023-07-29T00:37:45;16.40;99.90
6788;DHT22;3431;47.966;10.268;2023-07-29T00:38:07;16.40;99.90
6788;DHT22;3431;47.966;10.268;2023-07-29T00:38:28;16.40;99.90
6788;DHT22;3431;47.966;10.268;2023-07-29T00:38:51;16.40;99.90
6788;DHT22;3431;47.966;10.268;2023-07-29T00:39:14;16.40;99.90
6788;DHT22;3431;47.966;10.268;2023-07-29T00:39:35;16.40;99.90
6788;DHT22;3431;47.966;10.268;2023-07-29T00:39:58;16.40;99.90
6788;DHT22;3431;47.966;10.268;2023-07-29T00:40:21;16.40;99.90
6788;DHT22;3431;47.966;10.268;2023-07-29T00:40:44;16.40;99.90
6788;DHT22;3431;47.966;10.268;2023-07-29T00:41:07;16.40;99.90
6788;DHT22;3431;47.966;10.268;2023-07-29T00:41:29;16.40;99.90
6788;DHT22;3431;47.966;10.268;2023-07-29T00:41:51;16.40;99.90
6788;DHT22;3431;47.966;10.268;2023-07-29T00:42:12;16.40;99.90
6788;DHT22;3431;47.966;10.268;2023-07-29T00:42:34;16.40;99.90
6788;DHT22;3431;47.966;10.268;2023-07-29T00:42:56;16.40;99.90
6788;DHT22;3431;47.966;10.268;2023-07-29T00:43:18;16.30;99.90
6788;DHT22;3431;47.966;10.268;2023-07-29T00:43:40;16.30;99.90
6788;DHT22;3431;47.966;10.268;2023-07-29T00:44:01;16.30;99.90
6788;DHT22;3431;47.966;10.268;2023-07-29T00:44:25;16.30;99.90
6788;DHT22;3431;47.966;10.268;2023-07-29T00:44:47;16.30;99.90
6788;DHT22;3431;47.966;10.268;2023-07-29T00:45:09;16.30;99.90
6788;DHT22;3431;47.966;10.268;2023-07-29T00:45:32;16.30;99.90
6788;DHT22;3431;47.966;10.268;2023-07-29T00:45:54;16.20;99.90
6788;DHT22;3431;47.966;10.268;2023-07-29T00:46:16;16.20;99.90
6788;DHT22;3431;47.966;10.268;2023-07-29T00:46:39;16.20;99.90
6788;DHT22;3431;47.966;10.268;2023-07-29T00:47:03;16.30;99.90
6788;DHT22;3431;47.966;10.268;2023-07-29T00:47:26;16.20;99.90
6788;DHT22;3431;47.966;10.268;2023-07-29T00:47:48;16.20;99.90
6788;DHT22;3431;47.966;10.268;2023-07-29T00:48:12;16.20;99.90
6788;DHT22;3431;47.966;10.268;2023-07-29T00:48:35;16.20;99.90
6788;DHT22;3431;47.966;10.268;2023-07-29T00:48:57;16.20;99.90
6788;DHT22;3431;47.966;10.268;2023-07-29T00:49:19;16.20;99.90
6788;DHT22;3431;47.966;10.268;2023-07-29T00:49:42;16.10;99.90
6788;DHT22;3431;47.966;10.268;2023-07-29T00:50:05;16.10;99.90
6788;DHT22;3431;47.966;10.268;2023-07-29T00:50:29;16.10;99.90
6788;DHT22;3431;47.966;10.268;2023-07-29T00:50:51;16.20;99.90
6788;DHT22;3431;47.966;10.268;2023-07-29T00:51:13;16.20;99.90
6788;DHT22;3431;47.966;10.268;2023-07-29T00:51:35;16.10;99.90
6788;DHT22;3431;47.966;10.268;2023-07-29T00:51:57;16.10;99.90
6788;DHT22;3431;47.966;10.268;2023-07-29T00:52:20;16.10;99.90
6788;DHT22;3431;47.966;10.268;2023-07-29T00:52:42;16.10;99.90
6788;DHT22;3431;47.966;10.268;2023-07-29T00:53:03;16.10;99.90
6788;DHT22;3431;47.966;10.268;2023-07-29T00:53:25;16.10;99.90
6788;DHT22;3431;47.966;10.268;2023-07-29T00:53:47;16.10;99.90
6788;DHT22;3431;47.966;10.268;2023-07-29T00:54:09;16.10;99.90
6788;DHT22;3431;47.966;10.268;2023-07-29T00:54:30;16.10;99.90
6788;DHT22;3431;47.966;10.268;2023-07-29T00:54:52;16.10;99.90
6788;DHT22;3431;47.966;10.268;2023-07-29T00:55:15;16.10;99.90
6788;DHT22;3431;47.966;10.268;2023-07-29T00:55:37;16.10;99.90
6788;DHT22;3431;47.966;10.268;2023-07-29T00:56:01;16.10;99.90
6788;DHT22;3431;47.966;10.268;2023-07-29T00:56:22;16.10;99.90
6788;DHT22;3431;47.966;10.268;2023-07-29T00:56:45;16.10;99.90
6788;DHT22;3431;47.966;10.268;2023-07-29T00:57:08;16.10;99.90
6788;DHT22;3431;47.966;10.268;2023-07-29T00:57:30;16.10;99.90
6788;DHT22;3431;47.966;10.268;2023-07-29T00:57:54;16.10;99.90
6788;DHT22;3431;47.966;10.268;2023-07-29T00:58:16;16.10;99.90
6788;DHT22;3431;47.966;10.268;2023-07-29T00:58:37;16.00;99.90
6788;DHT22;3431;47.966;10.268;2023-07-29T00:58:59;16.00;99.90
6788;DHT22;3431;47.966;10.268;2023-07-29T00:59:23;16.00;99.90
6788;DHT22;3431;47.966;10.268;2023-07-29T00:59:45;16.00;99.90
6788;DHT22;3431;47.966;10.268;2023-07-29T01:00:07;16.00;99.90
6788;DHT22;3431;47.966;10.268;2023-07-29T01:00:30;16.00;99.90
6788;DHT22;3431;47.966;10.268;2023-07-29T01:00:52;16.10;99.90
6788;DHT22;3431;47.966;10.268;2023-07-29T01:01:14;16.00;99.90
6788;DHT22;3431;47.966;10.268;2023-07-29T01:01:37;16.00;99.90
6788;DHT22;3431;47.966;10.268;2023-07-29T01:01:59;16.00;99.90
6788;DHT22;3431;47.966;10.268;2023-07-29T01:02:21;16.00;99.90
6788;DHT22;3431;47.966;10.268;2023-07-29T01:02:51;16.00;99.90
6788;DHT22;3431;47.966;10.268;2023-07-29T01:03:30;16.00;99.90
6788;DHT22;3431;47.966;10.268;2023-07-29T01:03:57;16.00;99.90
6788;DHT22;3431;47.966;10.268;2023-07-29T01:04:25;16.00;99.90
6788;DHT22;3431;47.966;10.268;2023-07-29T01:04:52;16.00;99.90
6788;DHT22;3431;47.966;10.268;2023-07-29T01:05:16;16.00;99.90
6788;DHT22;3431;47.966;10.268;2023-07-29T01:05:50;16.00;99.90
6788;DHT22;3431;47.966;10.268;2023-07-29T01:06:23;16.00;99.90
6788;DHT22;3431;47.966;10.268;2023-07-29T01:06:53;16.00;99.90
6788;DHT22;3431;47.966;10.268;2023-07-29T01:07:22;16.00;99.90
6788;DHT22;3431;47.966;10.268;2023-07-29T01:07:49;16.00;99.90
6788;DHT22;3431;47.966;10.268;2023-07-29T01:08:20;16.00;99.90
6788;DHT22;3431;47.966;10.268;2023-07-29T01:08:48;16.00;99.90
6788;DHT22;3431;47.966;10.268;2023-07-29T01:09:18;16.00;99.90
6788;DHT22;3431;47.966;10.268;2023-07-29T01:09:51;16.00;99.90
6788;DHT22;3431;47.966;10.268;2023-07-29T01:10:26;16.00;99.90
6788;DHT22;3431;47.966;10.268;2023-07-29T01:11:01;15.90;99.90
6788;DHT22;3431;47.966;10.268;2023-07-29T01:11:35;15.90;99.90
6788;DHT22;3431;47.966;10.268;2023-07-29T01:12:06;15.90;99.90
6788;DHT22;3431;47.966;10.268;2023-07-29T01:12:36;15.90;99.90
6788;DHT22;3431;47.966;10.268;2023-07-29T01:13:06;15.90;99.90
6788;DHT22;3431;47.966;10.268;2023-07-29T01:13:33;15.90;99.90
6788;DHT22;3431;47.966;10.268;2023-07-29T01:14:01;15.90;99.90
6788;DHT22;3431;47.966;10.268;2023-07-29T01:14:29;15.90;99.90
6788;DHT22;3431;47.966;10.268;2023-07-29T01:15:01;15.90;99.90
6788;DHT22;3431;47.966;10.268;2023-07-29T01:15:33;15.90;99.90
6788;DHT22;3431;47.966;10.268;2023-07-29T01:16:00;16.00;99.90
6788;DHT22;3431;47.966;10.268;2023-07-29T01:16:28;16.00;99.90
6788;DHT22;3431;47.966;10.268;2023-07-29T01:16:53;16.00;99.90
6788;DHT22;3431;47.966;10.268;2023-07-29T01:17:22;16.00;99.90
6788;DHT22;3431;47.966;10.268;2023-07-29T01:17:47;16.00;99.90
6788;DHT22;3431;47.966;10.268;2023-07-29T01:18:15;15.90;99.90
6788;DHT22;3431;47.966;10.268;2023-07-29T01:18:41;16.00;99.90
6788;DHT22;3431;47.966;10.268;2023-07-29T01:19:06;15.90;99.90
6788;DHT22;3431;47.966;10.268;2023-07-29T01:19:42;16.00;99.90
6788;DHT22;3431;47.966;10.268;2023-07-29T01:20:08;15.90;99.90
6788;DHT22;3431;47.966;10.268;2023-07-29T01:20:33;15.90;99.90
6788;DHT22;3431;47.966;10.268;2023-07-29T01:20:58;15.90;99.90
6788;DHT22;3431;47.966;10.268;2023-07-29T01:21:22;15.90;99.90
6788;DHT22;3431;47.966;10.268;2023-07-29T01:21:44;15.90;99.90
6788;DHT22;3431;47.966;10.268;2023-07-29T01:22:07;15.90;99.90
6788;DHT22;3431;47.966;10.268;2023-07-29T01:22:29;15.90;99.90
6788;DHT22;3431;47.966;10.268;2023-07-29T01:22:52;15.90;99.90
6788;DHT22;3431;47.966;10.268;2023-07-29T01:23:14;15.90;99.90
6788;DHT22;3431;47.966;10.268;2023-07-29T01:23:38;15.90;99.90
6788;DHT22;3431;47.966;10.268;2023-07-29T01:24:00;16.00;99.90
6788;DHT22;3431;47.966;10.268;2023-07-29T01:24:24;16.00;99.90
6788;DHT22;3431;47.966;10.268;2023-07-29T01:24:46;16.00;99.90
6788;DHT22;3431;47.966;10.268;2023-07-29T01:25:08;16.00;99.90
6788;DHT22;3431;47.966;10.268;2023-07-29T01:25:29;16.00;99.90
6788;DHT22;3431;47.966;10.268;2023-07-29T01:25:51;16.00;99.90
6788;DHT22;3431;47.966;10.268;2023-07-29T01:26:12;16.00;99.90
6788;DHT22;3431;47.966;10.268;2023-07-29T01:26:36;16.00;99.90
6788;DHT22;3431;47.966;10.268;2023-07-29T01:26:58;16.00;99.90
6788;DHT22;3431;47.966;10.268;2023-07-29T01:27:20;16.00;99.90
6788;DHT22;3431;47.966;10.268;2023-07-29T01:27:42;16.00;99.90
6788;DHT22;3431;47.966;10.268;2023-07-29T01:28:04;16.00;99.90
6788;DHT22;3431;47.966;10.268;2023-07-29T01:28:27;16.10;99.90
6788;DHT22;3431;47.966;10.268;2023-07-29T01:28:50;16.10;99.90
6788;DHT22;3431;47.966;10.268;2023-07-29T01:29:11;16.10;99.90
6788;DHT22;3431;47.966;10.268;2023-07-29T01:29:33;16.10;99.90
6788;DHT22;3431;47.966;10.268;2023-07-29T01:29:55;16.10;99.90
6788;DHT22;3431;47.966;10.268;2023-07-29T01:30:18;16.10;99.90
6788;DHT22;3431;47.966;10.268;2023-07-29T01:30:43;16.10;99.90
6788;DHT22;3431;47.966;10.268;2023-07-29T01:31:11;16.10;99.90
6788;DHT22;3431;47.966;10.268;2023-07-29T01:31:35;16.10;99.90
6788;DHT22;3431;47.966;10.268;2023-07-29T01:32:02;16.10;99.90
6788;DHT22;3431;47.966;10.268;2023-07-29T01:32:31;16.10;99.90
6788;DHT22;3431;47.966;10.268;2023-07-29T01:33:00;16.10;99.90
6788;DHT22;3431;47.966;10.268;2023-07-29T01:33:26;16.10;99.90
6788;DHT22;3431;47.966;10.268;2023-07-29T01:33:53;16.10;99.90
6788;DHT22;3431;47.966;10.268;2023-07-29T01:34:24;16.10;99.90
6788;DHT22;3431;47.966;10.268;2023-07-29T01:34:53;16.10;99.90
6788;DHT22;3431;47.966;10.268;2023-07-29T01:35:23;16.10;99.90
6788;DHT22;3431;47.966;10.268;2023-07-29T01:35:48;16.10;99.90
6788;DHT22;3431;47.966;10.268;2023-07-29T01:36:15;16.10;99.90
6788;DHT22;3431;47.966;10.268;2023-07-29T01:36:39;16.10;99.90
6788;DHT22;3431;47.966;10.268;2023-07-29T01:37:04;16.10;99.90
6788;DHT22;3431;47.966;10.268;2023-07-29T01:37:31;16.10;99.90
6788;DHT22;3431;47.966;10.268;2023-07-29T01:37:57;16.10;99.90
6788;DHT22;3431;47.966;10.268;2023-07-29T01:38:27;16.10;99.90
6788;DHT22;3431;47.966;10.268;2023-07-29T01:38:52;16.10;99.90
6788;DHT22;3431;47.966;10.268;2023-07-29T01:39:17;16.10;99.90
6788;DHT22;3431;47.966;10.268;2023-07-29T01:39:41;16.10;99.90
6788;DHT22;3431;47.966;10.268;2023-07-29T01:40:05;16.10;99.90
6788;DHT22;3431;47.966;10.268;2023-07-29T01:40:29;16.10;99.90
6788;DHT22;3431;47.966;10.268;2023-07-29T01:40:53;16.10;99.90
6788;DHT22;3431;47.966;10.268;2023-07-29T01:41:15;16.20;99.90
6788;DHT22;3431;47.966;10.268;2023-07-29T01:41:38;16.20;99.90
6788;DHT22;3431;47.966;10.268;2023-07-29T01:42:00;16.20;99.90
6788;DHT22;3431;47.966;10.268;2023-07-29T01:42:24;16.20;99.90
6788;DHT22;3431;47.966;10.268;2023-07-29T01:42:45;16.00;99.90
6788;DHT22;3431;47.966;10.268;2023-07-29T01:43:07;16.20;99.90
6788;DHT22;3431;47.966;10.268;2023-07-29T01:43:29;16.20;99.90
6788;DHT22;3431;47.966;10.268;2023-07-29T01:43:52;16.20;99.90
6788;DHT22;3431;47.966;10.268;2023-07-29T01:44:15;16.20;99.90
6788;DHT22;3431;47.966;10.268;2023-07-29T01:44:38;16.20;99.90
6788;DHT22;3431;47.966;10.268;2023-07-29T01:44:59;16.20;99.90
6788;DHT22;3431;47.966;10.268;2023-07-29T01:45:23;16.20;99.90
6788;DHT22;3431;47.966;10.268;2023-07-29T01:45:45;16.20;99.90
6788;DHT22;3431;47.966;10.268;2023-07-29T01:46:09;16.20;99.90
6788;DHT22;3431;47.966;10.268;2023-07-29T01:46:33;16.20;99.90
6788;DHT22;3431;47.966;10.268;2023-07-29T01:46:55;16.30;99.90
6788;DHT22;3431;47.966;10.268;2023-07-29T01:47:16;16.20;99.90
6788;DHT22;3431;47.966;10.268;2023-07-29T01:47:38;16.30;99.90
6788;DHT22;3431;47.966;10.268;2023-07-29T01:48:01;16.30;99.90
6788;DHT22;3431;47.966;10.268;2023-07-29T01:48:24;16.30;99.90
6788;DHT22;3431;47.966;10.268;2023-07-29T01:48:46;16.30;99.90
6788;DHT22;3431;47.966;10.268;2023-07-29T01:49:09;16.30;99.90
6788;DHT22;3431;47.966;10.268;2023-07-29T01:49:30;16.30;99.90
6788;DHT22;3431;47.966;10.268;2023-07-29T01:49:54;16.30;99.90
6788;DHT22;3431;47.966;10.268;2023-07-29T01:50:15;17.40;99.90
6788;DHT22;3431;47.966;10.268;2023-07-29T01:50:38;16.30;99.90
6788;DHT22;3431;47.966;10.268;2023-07-29T01:50:59;16.30;99.90
6788;DHT22;3431;47.966;10.268;2023-07-29T01:51:21;16.30;99.90
6788;DHT22;3431;47.966;10.268;2023-07-29T01:51:42;16.30;99.90
6788;DHT22;3431;47.966;10.268;2023-07-29T01:52:05;16.30;99.90
6788;DHT22;3431;47.966;10.268;2023-07-29T01:52:26;16.30;99.90
6788;DHT22;3431;47.966;10.268;2023-07-29T01:52:49;16.30;99.90
6788;DHT22;3431;47.966;10.268;2023-07-29T01:53:10;16.20;99.90
6788;DHT22;3431;47.966;10.268;2023-07-29T01:53:32;16.20;99.90
6788;DHT22;3431;47.966;10.268;2023-07-29T01:53:55;16.20;99.90
6788;DHT22;3431;47.966;10.268;2023-07-29T01:54:17;16.20;99.90
6788;DHT22;3431;47.966;10.268;2023-07-29T01:54:39;16.20;99.90
6788;DHT22;3431;47.966;10.268;2023-07-29T01:55:02;16.20;99.90
6788;DHT22;3431;47.966;10.268;2023-07-29T01:55:23;16.20;99.90
6788;DHT22;3431;47.966;10.268;2023-07-29T01:55:45;16.20;99.90
6788;DHT22;3431;47.966;10.268;2023-07-29T01:56:06;16.20;99.90
6788;DHT22;3431;47.966;10.268;2023-07-29T01:56:30;16.20;99.90
6788;DHT22;3431;47.966;10.268;2023-07-29T01:56:52;16.20;99.90
6788;DHT22;3431;47.966;10.268;2023-07-29T01:57:14;16.20;99.90
6788;DHT22;3431;47.966;10.268;2023-07-29T01:57:36;16.20;99.90
6788;DHT22;3431;47.966;10.268;2023-07-29T01:57:57;16.20;99.90
6788;DHT22;3431;47.966;10.268;2023-07-29T01:58:20;16.20;99.90
6788;DHT22;3431;47.966;10.268;2023-07-29T01:58:43;16.20;99.90
6788;DHT22;3431;47.966;10.268;2023-07-29T01:59:05;16.30;99.90
6788;DHT22;3431;47.966;10.268;2023-07-29T01:59:27;16.30;99.90
6788;DHT22;3431;47.966;10.268;2023-07-29T01:59:49;16.30;99.90
6788;DHT22;3431;47.966;10.268;2023-07-29T02:00:11;16.30;99.90
6788;DHT22;3431;47.966;10.268;2023-07-29T02:00:38;16.30;99.90
6788;DHT22;3431;47.966;10.268;2023-07-29T02:00:59;16.30;99.90
6788;DHT22;3431;47.966;10.268;2023-07-29T02:01:21;16.30;99.90
6788;DHT22;3431;47.966;10.268;2023-07-29T02:01:43;16.30;99.90
6788;DHT22;3431;47.966;10.268;2023-07-29T02:02:04;16.30;99.90
6788;DHT22;3431;47.966;10.268;2023-07-29T02:02:27;16.30;99.90
6788;DHT22;3431;47.966;10.268;2023-07-29T02:02:48;16.30;99.90
6788;DHT22;3431;47.966;10.268;2023-07-29T02:03:10;16.30;99.90
6788;DHT22;3431;47.966;10.268;2023-07-29T02:03:31;16.30;99.90
6788;DHT22;3431;47.966;10.268;2023-07-29T02:03:54;16.30;99.90
6788;DHT22;3431;47.966;10.268;2023-07-29T02:04:16;16.40;99.90
6788;DHT22;3431;47.966;10.268;2023-07-29T02:04:38;16.30;99.90
6788;DHT22;3431;47.966;10.268;2023-07-29T02:04:59;16.30;99.90
6788;DHT22;3431;47.966;10.268;2023-07-29T02:05:21;16.40;99.90
6788;DHT22;3431;47.966;10.268;2023-07-29T02:05:43;16.30;99.90
6788;DHT22;3431;47.966;10.268;2023-07-29T02:06:05;16.40;99.90
6788;DHT22;3431;47.966;10.268;2023-07-29T02:06:27;16.30;99.90
6788;DHT22;3431;47.966;10.268;2023-07-29T02:06:48;16.30;99.90
6788;DHT22;3431;47.966;10.268;2023-07-29T02:07:10;16.30;99.90
6788;DHT22;3431;47.966;10.268;2023-07-29T02:07:33;16.40;99.90
6788;DHT22;3431;47.966;10.268;2023-07-29T02:07:54;16.30;99.90
6788;DHT22;3431;47.966;10.268;2023-07-29T02:08:16;16.40;99.90
6788;DHT22;3431;47.966;10.268;2023-07-29T02:08:38;16.40;99.90
6788;DHT22;3431;47.966;10.268;2023-07-29T02:09:03;16.40;99.90
6788;DHT22;3431;47.966;10.268;2023-07-29T02:09:25;16.40;99.90
6788;DHT22;3431;47.966;10.268;2023-07-29T02:09:48;16.40;99.90
6788;DHT22;3431;47.966;10.268;2023-07-29T02:10:10;16.40;99.90
6788;DHT22;3431;47.966;10.268;2023-07-29T02:10:31;16.40;99.90
6788;DHT22;3431;47.966;10.268;2023-07-29T02:10:53;16.40;99.90
6788;DHT22;3431;47.966;10.268;2023-07-29T02:11:15;16.40;99.90
6788;DHT22;3431;47.966;10.268;2023-07-29T02:11:36;16.30;99.90
6788;DHT22;3431;47.966;10.268;2023-07-29T02:11:59;16.40;99.90
6788;DHT22;3431;47.966;10.268;2023-07-29T02:12:21;16.40;99.90
6788;DHT22;3431;47.966;10.268;2023-07-29T02:12:42;16.40;99.90
6788;DHT22;3431;47.966;10.268;2023-07-29T02:13:04;16.40;99.90
6788;DHT22;3431;47.966;10.268;2023-07-29T02:13:25;16.40;99.90
6788;DHT22;3431;47.966;10.268;2023-07-29T02:13:47;16.40;99.90
6788;DHT22;3431;47.966;10.268;2023-07-29T02:14:10;16.40;99.90
6788;DHT22;3431;47.966;10.268;2023-07-29T02:14:34;16.40;99.90
6788;DHT22;3431;47.966;10.268;2023-07-29T02:14:56;16.40;99.90
6788;DHT22;3431;47.966;10.268;2023-07-29T02:15:17;16.40;99.90
6788;DHT22;3431;47.966;10.268;2023-07-29T02:15:39;16.50;99.90
6788;DHT22;3431;47.966;10.268;2023-07-29T02:16:02;16.50;99.90
6788;DHT22;3431;47.966;10.268;2023-07-29T02:16:24;16.50;99.90
6788;DHT22;3431;47.966;10.268;2023-07-29T02:16:45;16.50;99.90
6788;DHT22;3431;47.966;10.268;2023-07-29T02:17:07;16.50;99.90
6788;DHT22;3431;47.966;10.268;2023-07-29T02:17:30;16.60;99.90
6788;DHT22;3431;47.966;10.268;2023-07-29T02:17:51;16.50;99.90
6788;DHT22;3431;47.966;10.268;2023-07-29T02:18:14;16.50;99.90
6788;DHT22;3431;47.966;10.268;2023-07-29T02:18:36;16.50;99.90
6788;DHT22;3431;47.966;10.268;2023-07-29T02:18:57;16.50;99.90
6788;DHT22;3431;47.966;10.268;2023-07-29T02:19:19;16.50;99.90
6788;DHT22;3431;47.966;10.268;2023-07-29T02:19:40;16.50;99.90
6788;DHT22;3431;47.966;10.268;2023-07-29T02:20:02;16.50;99.90
6788;DHT22;3431;47.966;10.268;2023-07-29T02:20:25;16.50;99.90
6788;DHT22;3431;47.966;10.268;2023-07-29T02:20:47;16.50;99.90
6788;DHT22;3431;47.966;10.268;2023-07-29T02:21:10;16.50;99.90
6788;DHT22;3431;47.966;10.268;2023-07-29T02:21:32;16.50;99.90
6788;DHT22;3431;47.966;10.268;2023-07-29T02:21:53;16.50;99.90
6788;DHT22;3431;47.966;10.268;2023-07-29T02:22:16;16.50;99.90
6788;DHT22;3431;47.966;10.268;2023-07-29T02:22:39;16.60;99.90
6788;DHT22;3431;47.966;10.268;2023-07-29T02:23:01;17.30;99.90
6788;DHT22;3431;47.966;10.268;2023-07-29T02:23:22;16.50;99.90
6788;DHT22;3431;47.966;10.268;2023-07-29T02:23:44;16.60;99.90
6788;DHT22;3431;47.966;10.268;2023-07-29T02:24:07;16.60;99.90
6788;DHT22;3431;47.966;10.268;2023-07-29T02:24:28;16.60;99.90
6788;DHT22;3431;47.966;10.268;2023-07-29T02:24:51;16.60;99.90
6788;DHT22;3431;47.966;10.268;2023-07-29T02:25:13;16.60;99.90
6788;DHT22;3431;47.966;10.268;2023-07-29T02:25:35;16.60;99.90
6788;DHT22;3431;47.966;10.268;2023-07-29T02:25:57;17.00;99.90
6788;DHT22;3431;47.966;10.268;2023-07-29T02:26:18;16.60;99.90
6788;DHT22;3431;47.966;10.268;2023-07-29T02:26:41;16.60;99.90
6788;DHT22;3431;47.966;10.268;2023-07-29T02:27:04;16.60;99.90
6788;DHT22;3431;47.966;10.268;2023-07-29T02:27:26;16.60;99.90
6788;DHT22;3431;47.966;10.268;2023-07-29T02:27:48;16.60;99.90
6788;DHT22;3431;47.966;10.268;2023-07-29T02:28:10;16.60;99.90
6788;DHT22;3431;47.966;10.268;2023-07-29T02:28:31;16.60;99.90